Aktualne dane pomiarowe

Uwaga, wersja testowa! Automatyczne pobieranie danych za pomocą narzędzi lub skryptów to umożliwiających jest zabronione.

Dane meteo z obszaru Polski uzyskane na podstawie depesz SYNOP pobieranych co godzinę z NWS. Najedź myszką na symbol przedstawiony w tabeli, aby uzyskać informacje co do jego znaczenia. Prosimy pamiętać, że to testowa wersja strony, która jeszcze nie jest ukończona. Stworzono również jest krótki FAQ dotyczący korzystania z tej podstrony Anomalie temperatury w chwili obecnej odniesione są do okresu referencyjnego 1951-2016. Okres ten będzie później zmieniony na 1981-2010. Kliknij ikonę aby pobrać plik CSV. Kliknij ikonę aby wygenerować mapę synoptyczną dla danego terminu.

Wybierz Datę:    

        

Olsztyn (12272)

Dane terminowe dla wybranej stacji. Kliknij datę, aby otrzymać dane z tego terminu dla wszystkich stacji.

TemperaturaZachmurzenieWiatrCiśnienieOpadyPogoda
 Data t td wb tx tn tg rh  Nt Nl Cl Cm Ch ws wd g1 g2 wx mslp ppp ch 24h 12h t ww ww w1 w2  
2019-07-12 23:00:00 11.9 10.0 10.6--- 8830.0wx-wx0---01010.5 994.1 0.1---------
2019-07-12 22:00:00 13.4 10.0 11.2--- 8040.0wx-wx1wx---1010.4 994.1 0.3---------
2019-07-12 21:00:00 14.4 9.2 11.2--- 7150.0wx-wx2wx--21010.3 994.0 0.6---------
2019-07-12 20:00:00 14.2 9.0 11.0--- 7150.0wx-wx1wx--11010.3 994.0 0.7---------
2019-07-12 19:00:00 17.5 9.6 12.7--- 6035.0wx-wx1wx--11009.9 993.8 0.5---------
2019-07-12 18:00:00 19.3 10.0 13.7 21.8 16.4- 5550.0wx-wx3wx--31009.4 993.4 0.0- 0.012------
2019-07-12 17:00:00 20.8 9.4 14.1--- 4840.0wxwxwxwx3wx--31009.2 993.3 -0.3---------
2019-07-12 16:00:00 21.1 10.9 14.9--- 5240.0wxwxwxwx3wx--31009.2 993.3 -0.5---------
2019-07-12 15:00:00 21.1 11.1 15.0--- 5335.0wxwxwxwxwx4wx--41009.3 993.4 -0.5---------
2019-07-12 14:00:00 20.7 11.3 15.0--- 5535.0wxwxwxwxwx5wx--51009.5 993.6 -0.4---------
2019-07-12 13:00:00 21.1 12.2 15.6--- 5730.0wxwxwxwx4wx--41009.7 993.8 -0.2---------
2019-07-12 12:00:00 21.2 13.4 16.2--- 6135.0wxwxwxwxwx3wx--31009.8 993.9 -0.1- 0.06------
2019-07-12 11:00:00 21.1 11.4 15.2--- 5422.0wxwxwxwxwx4wx--41009.9 994.0 -0.1---------
2019-07-12 10:00:00 20.2 10.0 14.1--- 5225.0wxwxwxwxwx4wx--41010.0 994.0 -0.3---------
2019-07-12 09:00:00 20.5 9.4 14.0--- 4924.0wxwxwxwxwx5wx---1009.9 994.0 -0.3---------
2019-07-12 08:00:00 19.3 10.8 14.1--- 5829.0wxwxwxwx4wx--41010.1 994.1 -0.1---------
2019-07-12 07:00:00 17.8 11.8 14.0--- 6828.0wxwxwxwxwx3wx--31010.4 994.3 0.1---------
2019-07-12 06:00:00 16.4 11.1 13.0 17.3 11.6 9 7130.0wxwxwxwx2wx--21010.5 994.3 0.2- 0.012------
2019-07-12 05:00:00 16.4 11.1 13.0--- 7140.0wxwxwxwxwx2wx---1010.4 994.2 0.0---------
2019-07-12 04:00:00 14.6 10.4 11.9--- 7645.0wxwxwxwxwx1wx--11010.5 994.2 -0.1---------
2019-07-12 03:00:00 13.5 9.7 11.1--- 7850.0wx-wxwx1wx--11010.4 994.1 -0.4---------
2019-07-12 02:00:00 13.0 9.4 10.7--- 7950.0wx-wx1wx--11010.6 994.2 -0.5---------
2019-07-12 01:00:00 12.7 9.7 10.7--- 8250.0wx-wx1wx--11010.7 994.3 -0.5---------
2019-07-12 00:00:00 13.0 9.6 10.8--- 8045.0wx-wx1wx--11010.9 994.5 -0.4- 0.06------
2019-07-11 23:00:00 12.0 9.0 10.0--- 8250.0wx-wx0---01011.1 994.7 -0.3---------
2019-07-11 22:00:00 12.6 9.2 10.4--- 8050.0wx-wx0---01011.2 994.8 0.0---------
2019-07-11 21:00:00 11.7 8.2 9.5--- 7930.0wx-wx1wx--11011.4 994.9 0.3---------
2019-07-11 20:00:00 14.1 8.1 10.5--- 6750.0wx-wxwx1wx--11011.3 995.0 0.4---------
2019-07-11 19:00:00 15.9 8.1 11.3--- 6050.0wx-wxwx2wx--21011.0 994.8 0.3---------
2019-07-11 18:00:00 17.3 7.6 11.7 20.4 14.2- 5345.0wx-wxwx3wx-831010.7 994.6 0.2- 0.012------
2019-07-11 17:00:00 18.6 7.4 12.3--- 4845.0wx-wx4wx--41010.7 994.6 0.2---------
2019-07-11 16:00:00 19.3 8.3 13.0--- 4940.0wxwxwxwx5wx--51010.5 994.5 0.1---------
2019-07-11 15:00:00 18.8 8.7 12.9--- 5245.0wxwxwxwx5wx-851010.4 994.4 -0.2---------
2019-07-11 14:00:00 20.4 9.3 13.9--- 4930.0wxwxwxwx5wx--51010.4 994.4 -0.3---------
2019-07-11 13:00:00 19.8 9.4 13.7--- 5135.0wxwxwxwx4wx-841010.4 994.4 -0.7---------
2019-07-11 12:00:00 18.5 8.5 12.7--- 5235.0wxwxwxwx3wx9931010.7 994.6 -0.6- 0.06------
2019-07-11 11:00:00 18.0 9.1 12.7--- 5630.0wxwxwx4wx--41010.8 994.7 -0.3---------
2019-07-11 10:00:00 17.2 8.9 12.3--- 5840.0wxwxwx5wx-851011.2 995.1 0.2---------
2019-07-11 09:00:00 17.4 8.8 12.3--- 5725.0wxwxwx2wx--21011.3 995.2 0.5---------
2019-07-11 08:00:00 16.7 9.4 12.3--- 6240.0wxwxwx4wx--41011.2 995.0 0.3---------
2019-07-11 07:00:00 15.1 10.1 11.9--- 7235.0wxwxwx2wx---1011.2 994.9 0.2---------
2019-07-11 06:00:00 14.3 10.9 12.1 14.4 9.8 10 8030.0wxwxwx4wx--41011.0 994.7 0.3 0.1 0.012------
2019-07-11 05:00:00 12.0 10.6 11.0--- 9120.0wxwxwx2wx--21011.1 994.7 0.3---------
2019-07-11 04:00:00 10.3 9.5 9.7--- 9512.0wxwxwx2wx--21011.2 994.7 0.2---------
2019-07-11 03:00:00 10.2 9.4 9.6--- 9512.0wxwxwx2wx--21010.9 994.4 -0.2---------
2019-07-11 02:00:00 10.4 9.5 9.7--- 9420.0wxwxwx3wx--31010.9 994.4 -0.3---------
2019-07-11 01:00:00 10.9 9.8 10.1--- 9325.0wxwxwx2wx--21011.0 994.5 -0.3---------
2019-07-11 00:00:00 11.3 10.0 10.4--- 9240.0wxwxwx2wx--21011.1 994.6 -0.2- 0.06------
1.4 ms

 

Print Friendly, PDF & Email